Terminal Aerodrome Forecast
Issued by NWS

Home | Current Version | Previous Version | Text Only | Print | Product List | Glossary On
Versions: 1 2 3 4 5 6 7 8 9 10 11 12 13 14 15 16 17 18 19 20 21
000
FTUS41 KGYX 221120
TAFLEB
TAF
KLEB 221120Z 2212/2312 35004KT P6SM BKN006 OVC010
     FM221400 35010KT 2SM -RA BR OVC007
     FM230900 36010KT 1/2SM -RA FG OVC003=

USA.gov is the U.S. government's official web portal to all federal, state and local government web resources and services.